createdAt,value
2023-10-18T00:00:05.799Z,10.85
2023-10-18T00:01:07.720Z,9.94
2023-10-18T00:02:09.523Z,11.33
2023-10-18T00:03:11.476Z,11.23
2023-10-18T00:04:13.437Z,11.49
2023-10-18T00:05:15.256Z,11.29
2023-10-18T00:06:17.237Z,11.82
2023-10-18T00:07:19.224Z,11.39
2023-10-18T00:08:21.056Z,10.75
2023-10-18T00:09:22.895Z,10.92
2023-10-18T00:10:24.759Z,10.09
2023-10-18T00:11:26.648Z,10.79
2023-10-18T00:12:28.490Z,11.93
2023-10-18T00:13:30.260Z,12.52
2023-10-18T00:14:32.099Z,12.59
2023-10-18T00:15:33.984Z,11.68
2023-10-18T00:16:36.010Z,11.97
2023-10-18T00:17:37.870Z,12.14
2023-10-18T00:18:39.891Z,12.88
2023-10-18T00:19:41.928Z,13.00
2023-10-18T00:20:43.818Z,14.00
2023-10-18T00:21:45.962Z,14.92
2023-10-18T00:22:47.797Z,14.51
2023-10-18T00:23:49.659Z,14.49
2023-10-18T00:24:51.634Z,14.05
2023-10-18T00:25:53.463Z,14.75
2023-10-18T00:26:55.374Z,13.76
2023-10-18T00:27:57.249Z,15.80
2023-10-18T00:28:59.067Z,13.88
2023-10-18T00:30:00.918Z,13.90
2023-10-18T00:31:02.839Z,15.79
2023-10-18T00:32:04.835Z,14.62
2023-10-18T00:33:06.602Z,16.52
2023-10-18T00:34:08.491Z,14.52
2023-10-18T00:35:10.318Z,14.17
2023-10-18T00:36:12.456Z,14.61
2023-10-18T00:37:14.386Z,15.14
2023-10-18T00:38:16.222Z,13.96
2023-10-18T00:39:18.087Z,15.09
2023-10-18T00:40:19.972Z,14.40
2023-10-18T00:41:21.855Z,15.37
2023-10-18T00:42:23.740Z,14.53
2023-10-18T00:43:25.754Z,14.81
2023-10-18T00:44:27.784Z,14.61
2023-10-18T00:45:29.641Z,14.73
2023-10-18T00:46:31.516Z,14.06
2023-10-18T00:47:33.378Z,14.31
2023-10-18T00:48:35.565Z,14.31
2023-10-18T00:49:37.490Z,13.67
2023-10-18T00:50:39.367Z,13.11
2023-10-18T00:51:41.241Z,13.12
2023-10-18T00:52:43.127Z,13.01
2023-10-18T00:55:06.214Z,12.27
2023-10-18T01:01:31.212Z,12.37
2023-10-18T01:02:33.084Z,13.02
2023-10-18T01:03:35.032Z,13.24
2023-10-18T01:04:36.964Z,12.73
2023-10-18T01:05:38.709Z,13.22
2023-10-18T01:06:40.705Z,12.63
2023-10-18T01:07:42.723Z,12.74
2023-10-18T01:08:44.602Z,12.71
2023-10-18T01:09:46.464Z,12.65
2023-10-18T01:10:48.393Z,12.80
2023-10-18T01:11:50.374Z,12.63
2023-10-18T01:12:52.266Z,12.39
2023-10-18T01:13:54.106Z,13.37
2023-10-18T01:14:55.944Z,13.09
2023-10-18T01:15:57.812Z,14.25
2023-10-18T01:16:59.754Z,14.12
2023-10-18T01:18:01.672Z,12.50
2023-10-18T01:19:03.596Z,14.07
2023-10-18T01:20:05.544Z,13.01
2023-10-18T01:21:07.385Z,12.93
2023-10-18T01:22:09.300Z,13.45
2023-10-18T01:23:11.227Z,13.84
2023-10-18T01:24:13.071Z,14.19
2023-10-18T01:25:14.878Z,14.54
2023-10-18T01:26:16.756Z,13.66
2023-10-18T01:27:18.665Z,13.15
2023-10-18T01:28:20.518Z,14.49
2023-10-18T01:29:24.736Z,14.75
2023-10-18T01:30:25.939Z,14.81
2023-10-18T01:31:27.848Z,15.03
2023-10-18T01:32:29.807Z,16.49
2023-10-18T01:33:31.514Z,16.32
2023-10-18T01:34:33.362Z,15.29
2023-10-18T01:35:35.215Z,16.97
2023-10-18T01:36:37.204Z,17.69
2023-10-18T01:37:39.184Z,16.86
2023-10-18T01:38:41.017Z,17.29
2023-10-18T01:39:42.909Z,16.86
2023-10-18T01:40:44.724Z,16.41
2023-10-18T01:41:46.558Z,16.53
2023-10-18T01:42:48.461Z,17.02
2023-10-18T01:43:50.319Z,17.53
2023-10-18T01:44:52.361Z,17.11
2023-10-18T01:45:54.240Z,18.93
2023-10-18T01:46:56.119Z,18.71
2023-10-18T01:47:58.085Z,17.60
2023-10-18T01:48:59.955Z,17.37
2023-10-18T01:50:01.881Z,17.08
2023-10-18T01:51:03.804Z,16.04
2023-10-18T01:52:05.800Z,17.28
2023-10-18T01:53:07.653Z,17.99
2023-10-18T01:54:09.394Z,17.42
2023-10-18T01:55:11.277Z,17.11
2023-10-18T01:56:13.913Z,16.22
2023-10-18T01:57:15.751Z,16.26
2023-10-18T01:58:17.670Z,16.54
2023-10-18T01:59:19.518Z,17.61
2023-10-18T02:00:21.358Z,17.57
2023-10-18T02:01:23.291Z,16.71
2023-10-18T02:02:25.194Z,16.95
2023-10-18T02:03:27.110Z,17.34
2023-10-18T02:05:32.570Z,18.62
2023-10-18T02:06:34.413Z,19.25
2023-10-18T02:07:36.273Z,18.38
2023-10-18T02:08:38.195Z,17.96
2023-10-18T02:09:40.036Z,16.86
2023-10-18T02:10:41.868Z,17.23
2023-10-18T02:11:44.024Z,19.34
2023-10-18T02:12:45.809Z,19.39
2023-10-18T02:13:47.664Z,20.41
2023-10-18T02:14:49.527Z,19.81
2023-10-18T02:15:51.400Z,19.97
2023-10-18T02:16:53.282Z,19.37
2023-10-18T02:17:55.191Z,22.26
2023-10-18T02:18:57.100Z,20.17
2023-10-18T02:19:58.920Z,20.74
2023-10-18T02:21:00.768Z,22.39
2023-10-18T02:22:02.657Z,22.19
2023-10-18T02:23:04.568Z,21.68
2023-10-18T02:24:06.437Z,20.41
2023-10-18T02:25:08.390Z,22.08
2023-10-18T02:26:10.555Z,20.60
2023-10-18T02:27:12.416Z,19.42
2023-10-18T02:28:14.170Z,20.46
2023-10-18T02:29:16.028Z,20.06
2023-10-18T02:30:17.997Z,19.27
2023-10-18T02:31:19.926Z,20.17
2023-10-18T02:32:21.782Z,20.85
2023-10-18T02:33:23.636Z,20.08
2023-10-18T02:34:30.024Z,19.91
2023-10-18T02:35:29.288Z,20.18
2023-10-18T02:36:31.130Z,19.03
2023-10-18T02:37:32.883Z,19.72
2023-10-18T02:38:34.620Z,19.45
2023-10-18T02:39:37.607Z,19.39
2023-10-18T02:40:40.204Z,20.14
2023-10-18T02:41:42.022Z,19.91
2023-10-18T02:42:43.815Z,19.63
2023-10-18T02:43:45.522Z,21.64
2023-10-18T02:44:47.437Z,20.68
2023-10-18T02:45:49.310Z,19.73
2023-10-18T02:46:51.310Z,20.81
2023-10-18T02:47:53.115Z,19.30
2023-10-18T02:48:55.040Z,20.65
2023-10-18T02:49:56.907Z,19.50
2023-10-18T02:50:58.923Z,20.71
2023-10-18T02:52:00.809Z,19.37
2023-10-18T02:53:02.664Z,19.77
2023-10-18T02:54:04.520Z,19.68
2023-10-18T02:55:06.446Z,18.47
2023-10-18T02:56:08.228Z,19.81
2023-10-18T02:57:10.054Z,18.33
2023-10-18T02:58:11.960Z,20.25
2023-10-18T02:59:15.667Z,18.74
2023-10-18T03:00:17.541Z,19.84
2023-10-18T03:01:19.412Z,18.17
2023-10-18T03:02:21.302Z,18.05
2023-10-18T03:03:23.110Z,18.31
2023-10-18T03:04:25.107Z,18.03
2023-10-18T03:05:26.966Z,18.51
2023-10-18T03:06:28.815Z,17.83
2023-10-18T03:07:30.669Z,18.88
2023-10-18T03:08:32.596Z,19.32
2023-10-18T03:09:34.448Z,19.25
2023-10-18T03:10:36.549Z,18.59
2023-10-18T03:11:38.578Z,18.95
2023-10-18T03:12:40.673Z,18.81
2023-10-18T03:13:42.689Z,20.26
2023-10-18T03:14:44.534Z,19.51
2023-10-18T03:15:52.154Z,19.98
2023-10-18T03:16:50.147Z,19.82
2023-10-18T03:17:52.070Z,19.79
2023-10-18T03:18:53.899Z,19.95
2023-10-18T03:19:55.720Z,18.59
2023-10-18T03:20:57.605Z,19.45
2023-10-18T03:21:59.500Z,19.63
2023-10-18T03:23:01.219Z,19.18
2023-10-18T03:24:03.074Z,19.59
2023-10-18T03:25:04.963Z,20.01
2023-10-18T03:26:07.516Z,18.78
2023-10-18T03:27:09.385Z,18.14
2023-10-18T03:28:11.231Z,17.30
2023-10-18T03:29:13.045Z,17.98
2023-10-18T03:30:15.500Z,18.31
2023-10-18T03:31:17.508Z,17.68
2023-10-18T03:32:19.402Z,20.33
2023-10-18T03:33:21.261Z,17.39
2023-10-18T03:34:23.113Z,17.45
2023-10-18T03:35:25.040Z,16.20
2023-10-18T03:39:19.843Z,15.09
2023-10-18T03:40:21.810Z,15.03
2023-10-18T03:41:23.744Z,16.05
2023-10-18T03:42:25.802Z,15.56
2023-10-18T03:43:28.331Z,14.43
2023-10-18T03:44:30.318Z,13.99
2023-10-18T03:45:32.271Z,12.83
2023-10-18T03:46:34.463Z,11.71
2023-10-18T03:47:36.522Z,12.39
2023-10-18T03:48:38.537Z,11.39
2023-10-18T03:49:40.389Z,11.33
2023-10-18T03:50:42.490Z,13.14
2023-10-18T03:51:44.695Z,13.24
2023-10-18T03:52:46.788Z,12.28
2023-10-18T03:53:48.909Z,12.99
2023-10-18T03:54:50.878Z,12.72
2023-10-18T03:55:52.921Z,12.80
2023-10-18T03:56:54.768Z,13.20
2023-10-18T03:57:56.727Z,11.33
2023-10-18T03:58:58.777Z,11.43
2023-10-18T04:00:00.834Z,11.65
2023-10-18T04:01:02.804Z,11.96
2023-10-18T04:02:04.966Z,12.73
2023-10-18T04:03:07.872Z,13.12
2023-10-18T04:04:10.705Z,13.68
2023-10-18T04:05:12.574Z,14.35
2023-10-18T04:06:14.431Z,12.72
2023-10-18T04:07:16.335Z,12.40
2023-10-18T04:08:18.264Z,12.97
2023-10-18T04:09:20.121Z,13.59
2023-10-18T04:10:22.032Z,12.82
2023-10-18T04:11:23.916Z,12.24
2023-10-18T04:12:25.761Z,13.61
2023-10-18T04:13:27.669Z,12.49
2023-10-18T04:14:29.513Z,12.01
2023-10-18T04:15:31.361Z,10.95
2023-10-18T04:16:34.322Z,12.64
2023-10-18T04:17:36.252Z,10.97
2023-10-18T04:18:38.147Z,12.01
2023-10-18T04:19:40.053Z,11.77
2023-10-18T04:20:41.984Z,11.61
2023-10-18T04:21:43.748Z,11.08
2023-10-18T04:22:45.563Z,16.02
2023-10-18T04:23:47.827Z,11.35
2023-10-18T04:24:49.931Z,11.18
2023-10-18T04:25:51.785Z,15.84
2023-10-18T04:26:53.621Z,14.19
2023-10-18T04:27:55.504Z,13.37
2023-10-18T04:28:57.464Z,11.25
2023-10-18T04:29:59.560Z,12.00
2023-10-18T04:31:01.574Z,12.73
2023-10-18T04:32:03.547Z,13.24
2023-10-18T04:33:05.510Z,11.46
2023-10-18T04:34:07.481Z,12.07
2023-10-18T04:35:09.369Z,11.10
2023-10-18T04:36:11.435Z,13.13
2023-10-18T04:37:13.499Z,11.59
2023-10-18T04:38:15.532Z,10.06
2023-10-18T04:39:17.472Z,10.03
2023-10-18T04:40:19.879Z,11.13
2023-10-18T04:41:21.892Z,11.80
2023-10-18T04:42:23.836Z,12.16
2023-10-18T04:43:25.854Z,13.55
2023-10-18T04:44:27.848Z,14.77
2023-10-18T04:45:29.797Z,13.66
2023-10-18T04:46:32.122Z,14.55
2023-10-18T04:47:34.303Z,16.26
2023-10-18T04:48:36.272Z,15.31
2023-10-18T04:49:38.496Z,14.36
2023-10-18T04:50:40.794Z,14.25
2023-10-18T04:51:42.938Z,14.57
2023-10-18T04:52:45.208Z,13.81
2023-10-18T04:53:47.266Z,13.21
2023-10-18T04:54:49.241Z,14.14
2023-10-18T04:55:51.181Z,12.39
2023-10-18T04:56:53.240Z,12.42
2023-10-18T04:57:55.326Z,13.28
2023-10-18T04:58:57.330Z,12.90
2023-10-18T04:59:59.283Z,13.69
2023-10-18T05:01:01.559Z,15.35
2023-10-18T05:02:03.629Z,14.84
2023-10-18T05:03:05.504Z,14.15
2023-10-18T05:04:07.543Z,14.12
2023-10-18T05:05:09.570Z,12.74
2023-10-18T05:06:11.614Z,11.59
2023-10-18T05:07:13.607Z,12.26
2023-10-18T05:08:15.631Z,11.31
2023-10-18T05:09:17.575Z,11.25
2023-10-18T05:10:20.318Z,11.25
2023-10-18T05:11:23.230Z,10.98
2023-10-18T05:12:25.177Z,13.51
2023-10-18T05:13:27.239Z,12.63
2023-10-18T05:14:31.369Z,13.39
2023-10-18T05:15:36.082Z,12.83
2023-10-18T05:16:38.620Z,12.12
2023-10-18T05:17:40.650Z,11.44
2023-10-18T05:18:42.639Z,12.72
2023-10-18T05:19:44.886Z,12.76
2023-10-18T05:20:47.044Z,12.75
2023-10-18T05:21:49.031Z,12.82
2023-10-18T05:22:50.944Z,12.79
2023-10-18T05:23:54.235Z,12.97
2023-10-18T05:24:56.185Z,13.99
2023-10-18T05:25:58.249Z,16.66
2023-10-18T05:27:00.299Z,15.33
2023-10-18T05:28:02.536Z,15.72
2023-10-18T05:29:04.620Z,16.23
2023-10-18T05:30:07.500Z,17.17
2023-10-18T05:31:09.560Z,19.88
2023-10-18T05:32:11.570Z,18.39
2023-10-18T05:33:13.585Z,18.47
2023-10-18T05:34:15.601Z,17.62
2023-10-18T05:35:17.567Z,16.11
2023-10-18T05:36:19.713Z,17.62
2023-10-18T05:37:21.678Z,16.67
2023-10-18T05:38:23.722Z,16.88
2023-10-18T05:39:26.188Z,15.78
2023-10-18T05:40:28.374Z,18.58
2023-10-18T05:41:30.437Z,18.75
2023-10-18T05:42:32.356Z,18.89
2023-10-18T05:43:34.347Z,19.82
2023-10-18T05:44:37.597Z,21.02
2023-10-18T05:45:39.842Z,23.84
2023-10-18T05:46:41.882Z,24.25
2023-10-18T05:47:43.874Z,23.97
2023-10-18T05:48:45.916Z,21.73
2023-10-18T05:49:47.862Z,22.08
2023-10-18T05:50:50.227Z,20.40
2023-10-18T05:51:52.227Z,20.25
2023-10-18T05:52:54.227Z,19.03
2023-10-18T05:53:56.186Z,19.17
2023-10-18T05:54:58.187Z,18.39
2023-10-18T05:56:00.219Z,17.29
2023-10-18T05:57:02.143Z,18.66
2023-10-18T05:58:04.209Z,18.55
2023-10-18T05:59:06.254Z,19.03
2023-10-18T06:00:08.610Z,18.82
2023-10-18T06:01:10.640Z,18.45
2023-10-18T06:02:12.751Z,19.74
2023-10-18T06:03:14.850Z,19.90
2023-10-18T06:04:16.869Z,20.57
2023-10-18T06:05:18.895Z,20.39
2023-10-18T06:06:20.789Z,19.34
2023-10-18T06:07:23.478Z,18.78
2023-10-18T06:08:26.699Z,19.11
2023-10-18T06:09:28.828Z,16.75
2023-10-18T06:10:31.170Z,17.96
2023-10-18T06:11:32.997Z,18.02
2023-10-18T06:12:34.858Z,19.11
2023-10-18T06:13:37.756Z,18.96
2023-10-18T06:14:39.608Z,19.12
2023-10-18T06:15:41.470Z,20.12
2023-10-18T06:16:43.358Z,20.50
2023-10-18T06:17:45.352Z,21.25
2023-10-18T06:18:47.288Z,19.69
2023-10-18T06:19:49.120Z,21.41
2023-10-18T06:20:50.976Z,21.13
2023-10-18T06:21:52.865Z,20.26
2023-10-18T06:22:55.874Z,20.90
2023-10-18T06:23:57.740Z,24.16
2023-10-18T06:24:59.616Z,25.13
2023-10-18T06:26:01.392Z,27.23
2023-10-18T06:27:03.263Z,31.16
2023-10-18T06:28:05.171Z,29.42
2023-10-18T06:29:07.011Z,29.72
2023-10-18T06:30:09.088Z,30.13
2023-10-18T06:31:11.074Z,29.17
2023-10-18T06:32:13.037Z,28.27
2023-10-18T06:33:14.924Z,26.12
2023-10-18T06:34:19.062Z,24.03
2023-10-18T06:35:20.973Z,24.12
2023-10-18T06:36:22.815Z,22.21
2023-10-18T06:37:24.906Z,20.99
2023-10-18T06:38:26.869Z,18.40
2023-10-18T06:39:28.956Z,18.77
2023-10-18T06:40:31.099Z,18.05
2023-10-18T06:41:32.941Z,16.76
2023-10-18T06:42:37.019Z,17.14
2023-10-18T06:43:38.917Z,17.37
2023-10-18T06:44:40.770Z,17.93
2023-10-18T06:45:43.928Z,17.32
2023-10-18T06:46:45.910Z,18.57
2023-10-18T06:47:47.880Z,17.41
2023-10-18T06:48:59.895Z,18.11
2023-10-18T06:49:58.378Z,17.04
2023-10-18T06:50:57.812Z,17.41
2023-10-18T06:52:00.045Z,16.97
2023-10-18T06:53:02.178Z,17.19
2023-10-18T06:54:04.103Z,19.09
2023-10-18T06:55:05.879Z,18.49
2023-10-18T06:56:07.846Z,42.96
2023-10-18T06:57:09.676Z,19.73
2023-10-18T06:58:11.456Z,18.07
2023-10-18T06:59:13.415Z,19.83
2023-10-18T07:00:15.280Z,19.22
2023-10-18T07:01:18.323Z,20.49
2023-10-18T07:02:20.290Z,20.44
2023-10-18T07:03:22.146Z,20.92
2023-10-18T07:04:24.167Z,19.51
2023-10-18T07:05:26.043Z,19.67
2023-10-18T07:06:27.947Z,20.88
2023-10-18T07:07:30.967Z,20.91
2023-10-18T07:08:33.552Z,20.17
2023-10-18T07:09:35.510Z,20.51
2023-10-18T07:10:37.420Z,20.71
2023-10-18T07:11:49.911Z,19.65
2023-10-18T07:12:43.021Z,18.89
2023-10-18T07:13:44.871Z,19.06
2023-10-18T07:14:46.752Z,18.54
2023-10-18T07:15:51.265Z,18.88
2023-10-18T07:16:53.284Z,18.57
2023-10-18T07:17:55.265Z,17.82
2023-10-18T07:18:57.182Z,19.23
2023-10-18T07:19:59.053Z,19.24
2023-10-18T07:21:01.006Z,22.30
2023-10-18T07:22:02.879Z,20.73
2023-10-18T07:23:04.713Z,21.76
2023-10-18T07:24:06.589Z,20.02
2023-10-18T07:25:08.414Z,20.32
2023-10-18T07:26:10.549Z,20.63
2023-10-18T07:27:12.375Z,20.69
2023-10-18T07:28:14.279Z,19.45
2023-10-18T07:29:16.185Z,19.61
2023-10-18T07:30:18.616Z,18.95
2023-10-18T07:31:21.645Z,19.71
2023-10-18T07:32:23.595Z,19.71
2023-10-18T07:33:25.463Z,19.16
2023-10-18T07:34:28.537Z,20.25
2023-10-18T07:35:30.692Z,18.70
2023-10-18T07:36:32.546Z,18.03
2023-10-18T07:37:34.395Z,17.42
2023-10-18T07:38:36.250Z,17.23
2023-10-18T07:39:38.176Z,17.42
2023-10-18T07:40:40.636Z,17.81
2023-10-18T07:42:52.002Z,17.28
2023-10-18T07:43:53.896Z,16.91
2023-10-18T07:44:55.734Z,17.37
2023-10-18T07:45:57.547Z,16.92
2023-10-18T07:46:59.386Z,16.07
2023-10-18T07:48:01.283Z,15.49
2023-10-18T07:49:03.154Z,15.49
2023-10-18T07:50:05.244Z,14.67
2023-10-18T07:51:07.262Z,14.79
2023-10-18T07:52:09.104Z,15.19
2023-10-18T07:53:10.929Z,14.05
2023-10-18T07:55:28.876Z,14.59
2023-10-18T07:56:30.831Z,14.37
2023-10-18T07:57:32.676Z,14.76
2023-10-18T07:58:34.590Z,14.23
2023-10-18T07:59:36.574Z,13.51
2023-10-18T08:00:38.440Z,13.98
2023-10-18T08:01:40.413Z,12.83
2023-10-18T08:02:42.351Z,12.90
2023-10-18T08:03:44.373Z,13.73
2023-10-18T08:04:46.538Z,12.74
2023-10-18T08:05:48.659Z,13.56
2023-10-18T08:06:50.992Z,11.61
2023-10-18T08:07:52.960Z,10.35
2023-10-18T08:08:55.101Z,10.43
2023-10-18T08:09:57.050Z,11.01
2023-10-18T08:10:59.115Z,10.77
2023-10-18T08:12:01.196Z,15.62
2023-10-18T08:13:02.966Z,13.59
2023-10-18T08:14:04.796Z,14.74
2023-10-18T08:15:06.709Z,12.29
2023-10-18T08:16:09.198Z,10.23
2023-10-18T08:17:11.151Z,10.65
2023-10-18T08:18:12.973Z,10.95
2023-10-18T08:19:14.836Z,11.11
2023-10-18T08:20:16.736Z,10.76
2023-10-18T08:21:18.549Z,10.60
2023-10-18T08:22:23.164Z,10.35
2023-10-18T08:23:24.146Z,11.30
2023-10-18T08:24:25.986Z,11.81
2023-10-18T08:25:27.899Z,11.39
2023-10-18T08:26:29.982Z,10.44
2023-10-18T08:27:31.840Z,10.96
2023-10-18T08:28:33.691Z,10.71
2023-10-18T08:29:35.555Z,10.74
2023-10-18T08:30:37.457Z,10.77
2023-10-18T08:31:39.434Z,10.76
2023-10-18T08:32:41.394Z,11.29
2023-10-18T08:33:43.215Z,10.25
2023-10-18T08:34:45.075Z,10.84
2023-10-18T08:35:46.927Z,10.95
2023-10-18T08:36:48.791Z,10.23
2023-10-18T08:37:50.655Z,9.09
2023-10-18T08:38:52.518Z,9.54
2023-10-18T08:39:54.456Z,9.00
2023-10-18T08:40:56.360Z,8.55
2023-10-18T08:41:58.259Z,8.15
2023-10-18T08:43:00.176Z,8.40
2023-10-18T08:44:01.905Z,8.62
2023-10-18T08:45:04.172Z,7.58
2023-10-18T08:46:06.095Z,8.29
2023-10-18T08:47:07.996Z,8.77
2023-10-18T08:48:09.841Z,7.61
2023-10-18T08:49:11.910Z,8.32
2023-10-18T08:50:13.913Z,7.59
2023-10-18T08:51:15.774Z,8.29
2023-10-18T08:52:17.650Z,7.68
2023-10-18T08:53:19.496Z,8.39
2023-10-18T08:54:21.478Z,8.11
2023-10-18T08:55:23.249Z,6.97
2023-10-18T08:56:25.099Z,6.08
2023-10-18T08:57:26.966Z,5.64
2023-10-18T08:58:28.779Z,6.15
2023-10-18T08:59:30.584Z,5.69
2023-10-18T09:00:32.463Z,5.44
2023-10-18T09:01:34.390Z,4.76
2023-10-18T09:02:36.272Z,5.64
2023-10-18T09:03:38.146Z,4.87
2023-10-18T09:04:39.998Z,4.53
2023-10-18T09:05:41.817Z,4.38
2023-10-18T09:06:43.657Z,4.57
2023-10-18T09:07:45.507Z,4.73
2023-10-18T09:08:47.402Z,4.73
2023-10-18T09:09:49.263Z,4.98
2023-10-18T09:10:51.359Z,4.97
2023-10-18T09:11:53.284Z,4.49
2023-10-18T09:12:55.192Z,4.77
2023-10-18T09:13:57.159Z,4.09
2023-10-18T09:14:59.086Z,3.87
2023-10-18T09:16:02.534Z,4.48
2023-10-18T09:17:05.035Z,4.67
2023-10-18T09:18:07.042Z,5.05
2023-10-18T09:19:10.838Z,3.57
2023-10-18T09:20:12.643Z,4.19
2023-10-18T09:21:14.491Z,3.93
2023-10-18T09:22:16.391Z,4.21
2023-10-18T09:23:18.234Z,3.37
2023-10-18T09:24:20.023Z,3.06
2023-10-18T09:25:21.967Z,3.47
2023-10-18T09:26:23.868Z,3.49
2023-10-18T09:27:25.725Z,3.49
2023-10-18T09:28:27.632Z,3.44
2023-10-18T09:29:29.522Z,2.94
2023-10-18T09:30:31.392Z,3.05
2023-10-18T09:31:33.376Z,2.91
2023-10-18T09:32:35.413Z,2.71
2023-10-18T09:33:37.295Z,2.89
2023-10-18T09:34:39.284Z,2.63
2023-10-18T09:35:41.279Z,2.73
2023-10-18T09:36:45.285Z,2.44
2023-10-18T09:37:46.813Z,2.71
2023-10-18T09:38:48.680Z,2.93
2023-10-18T09:39:50.588Z,2.91
2023-10-18T09:40:52.411Z,2.41
2023-10-18T09:41:54.282Z,2.49
2023-10-18T09:42:56.151Z,2.78
2023-10-18T09:43:58.021Z,2.52
2023-10-18T09:44:59.930Z,2.60
2023-10-18T09:46:01.809Z,3.10
2023-10-18T09:47:03.628Z,2.99
2023-10-18T09:48:05.783Z,3.05
2023-10-18T09:49:07.655Z,2.82
2023-10-18T09:50:09.928Z,2.63
2023-10-18T09:51:11.762Z,2.69
2023-10-18T09:52:13.840Z,2.47
2023-10-18T09:53:15.904Z,2.77
2023-10-18T09:54:17.760Z,2.84
2023-10-18T09:55:19.689Z,3.07
2023-10-18T09:56:21.579Z,3.04
2023-10-18T09:57:23.540Z,3.01
2023-10-18T09:58:25.440Z,2.53
2023-10-18T09:59:28.663Z,2.65
2023-10-18T10:00:34.404Z,2.45
2023-10-18T10:01:36.395Z,2.65
2023-10-18T10:02:38.332Z,2.65
2023-10-18T10:03:40.247Z,3.14
2023-10-18T10:04:42.194Z,2.76
2023-10-18T10:05:44.125Z,3.61
2023-10-18T10:06:46.049Z,3.31
2023-10-18T10:07:48.748Z,3.35
2023-10-18T10:08:50.768Z,3.34
2023-10-18T10:11:03.006Z,3.33
2023-10-18T10:13:14.326Z,3.99
2023-10-18T10:14:16.178Z,3.63
2023-10-18T10:15:18.058Z,2.79
2023-10-18T10:16:20.039Z,3.10
2023-10-18T10:17:22.042Z,2.92
2023-10-18T10:18:23.878Z,2.69
2023-10-18T10:19:25.858Z,2.90
2023-10-18T10:20:27.691Z,2.93
2023-10-18T10:21:29.576Z,3.07
2023-10-18T10:22:32.361Z,3.12
2023-10-18T10:23:34.370Z,3.04
2023-10-18T10:24:36.235Z,2.75
2023-10-18T10:25:43.753Z,4.45
2023-10-18T10:26:42.026Z,2.59
2023-10-18T10:27:43.927Z,2.71
2023-10-18T10:28:45.781Z,2.83
2023-10-18T10:29:47.559Z,2.27
2023-10-18T10:30:49.525Z,2.83
2023-10-18T10:31:51.566Z,2.68
2023-10-18T10:32:53.959Z,2.50
2023-10-18T10:33:56.002Z,2.55
2023-10-18T10:34:57.755Z,2.86
2023-10-18T10:35:59.683Z,2.71
2023-10-18T10:37:01.635Z,2.86
2023-10-18T10:38:03.666Z,3.26
2023-10-18T10:39:05.546Z,2.83
2023-10-18T10:40:07.980Z,3.65
2023-10-18T10:41:09.881Z,2.82
2023-10-18T10:42:11.796Z,2.42
2023-10-18T10:43:13.729Z,2.76
2023-10-18T10:44:15.607Z,2.39
2023-10-18T10:45:17.504Z,2.43
2023-10-18T10:46:19.523Z,2.71
2023-10-18T10:47:21.594Z,2.25
2023-10-18T10:50:00.963Z,2.36
2023-10-18T10:51:02.860Z,2.67
2023-10-18T10:52:04.620Z,2.59
2023-10-18T10:53:06.505Z,2.69
2023-10-18T10:54:08.437Z,2.57
2023-10-18T10:55:10.570Z,2.83
2023-10-18T10:56:12.659Z,2.35
2023-10-18T10:57:14.555Z,2.32
2023-10-18T10:58:16.479Z,2.29
2023-10-18T11:00:50.628Z,2.32
2023-10-18T11:01:52.595Z,2.19
2023-10-18T11:02:54.592Z,2.05
2023-10-18T11:03:56.526Z,1.94
2023-10-18T11:04:58.414Z,2.32
2023-10-18T11:06:00.299Z,1.88
2023-10-18T11:07:02.671Z,2.46
2023-10-18T11:08:04.820Z,2.21
2023-10-18T11:09:06.708Z,2.28
2023-10-18T11:10:08.816Z,1.87
2023-10-18T11:11:10.813Z,2.18
2023-10-18T11:13:48.242Z,2.25
2023-10-18T11:14:50.116Z,2.25
2023-10-18T11:15:51.923Z,1.97
2023-10-18T11:16:53.832Z,1.95
2023-10-18T11:17:55.795Z,2.08
2023-10-18T11:18:57.613Z,2.09
2023-10-18T11:19:59.511Z,2.19
2023-10-18T11:21:01.397Z,2.05
2023-10-18T11:22:04.719Z,3.15
2023-10-18T11:23:06.964Z,2.97
2023-10-18T11:24:08.715Z,3.07
2023-10-18T11:25:10.636Z,2.52
2023-10-18T11:26:12.661Z,4.37
2023-10-18T11:27:14.818Z,3.93
2023-10-18T11:28:16.720Z,3.89
2023-10-18T11:29:18.540Z,4.75
2023-10-18T11:30:20.588Z,3.66
2023-10-18T11:31:22.559Z,3.53
2023-10-18T11:32:24.782Z,2.91
2023-10-18T11:33:26.860Z,2.59
2023-10-18T11:34:28.934Z,2.27
2023-10-18T11:35:31.043Z,2.36
2023-10-18T11:36:32.900Z,2.25
2023-10-18T11:37:34.913Z,1.89
2023-10-18T11:38:36.710Z,2.01
2023-10-18T11:39:38.567Z,2.59
2023-10-18T11:40:40.544Z,2.29
2023-10-18T11:41:42.389Z,2.06
2023-10-18T11:42:44.286Z,1.67
2023-10-18T11:43:46.047Z,2.08
2023-10-18T11:44:47.893Z,2.16
2023-10-18T11:45:49.809Z,2.20
2023-10-18T11:46:51.745Z,2.19
2023-10-18T11:47:53.575Z,2.61
2023-10-18T11:48:55.666Z,2.15
2023-10-18T11:49:57.533Z,2.33
2023-10-18T11:50:59.633Z,2.23
2023-10-18T11:52:01.546Z,2.43
2023-10-18T11:53:03.329Z,2.34
2023-10-18T11:54:05.170Z,2.63
2023-10-18T11:55:07.078Z,2.71
2023-10-18T11:56:09.542Z,2.53
2023-10-18T11:57:11.394Z,2.40
2023-10-18T11:58:13.371Z,2.92
2023-10-18T11:59:15.219Z,3.79
2023-10-18T12:00:17.069Z,3.73
2023-10-18T12:01:19.237Z,4.43
2023-10-18T12:02:21.526Z,3.75
2023-10-18T12:03:23.523Z,3.01
2023-10-18T12:04:25.902Z,2.85
2023-10-18T12:05:28.085Z,2.99
2023-10-18T12:06:30.146Z,3.09
2023-10-18T12:07:32.035Z,3.29
2023-10-18T12:08:33.836Z,3.09
2023-10-18T12:09:35.712Z,3.33
2023-10-18T12:10:37.594Z,2.97
2023-10-18T12:11:39.453Z,2.97
2023-10-18T12:12:41.296Z,2.69
2023-10-18T12:13:43.176Z,2.40
2023-10-18T12:14:45.021Z,2.21
2023-10-18T12:15:46.866Z,2.57
2023-10-18T12:16:48.929Z,2.36
2023-10-18T12:17:50.892Z,2.61
2023-10-18T12:18:52.863Z,2.80
2023-10-18T12:19:54.725Z,2.72
2023-10-18T12:20:56.601Z,2.79
2023-10-18T12:21:58.400Z,2.45
2023-10-18T12:23:00.243Z,2.77
2023-10-18T12:24:02.095Z,1.92
2023-10-18T12:25:03.974Z,2.46
2023-10-18T12:26:06.011Z,2.43
2023-10-18T12:27:07.893Z,2.41
2023-10-18T12:28:09.741Z,1.87
2023-10-18T12:29:11.905Z,2.03
2023-10-18T12:30:28.603Z,1.93
2023-10-18T12:31:18.353Z,2.48
2023-10-18T12:32:20.537Z,2.04
2023-10-18T12:33:22.642Z,2.09
2023-10-18T12:34:24.569Z,2.13
2023-10-18T12:35:26.437Z,2.17
2023-10-18T12:36:28.312Z,2.27
2023-10-18T12:37:30.220Z,2.01
2023-10-18T12:38:32.059Z,2.54
2023-10-18T12:39:33.907Z,4.55
2023-10-18T12:40:35.894Z,12.64
2023-10-18T12:41:37.758Z,4.92
2023-10-18T12:42:39.630Z,5.24
2023-10-18T12:43:41.483Z,5.77
2023-10-18T12:44:43.245Z,6.70
2023-10-18T12:45:45.145Z,5.55
2023-10-18T12:46:47.046Z,4.82
2023-10-18T12:47:49.003Z,4.14
2023-10-18T12:48:51.071Z,2.68
2023-10-18T12:49:53.081Z,2.28
2023-10-18T12:50:55.184Z,2.47
2023-10-18T12:51:58.300Z,2.63
2023-10-18T12:53:00.645Z,2.29
2023-10-18T12:54:02.511Z,2.57
2023-10-18T12:55:04.376Z,2.57
2023-10-18T12:56:06.241Z,2.19
2023-10-18T12:57:08.056Z,3.07
2023-10-18T12:58:09.972Z,2.38
2023-10-18T12:59:11.876Z,2.60
2023-10-18T13:00:14.599Z,2.88
2023-10-18T13:01:16.468Z,2.65
2023-10-18T13:02:18.376Z,3.03
2023-10-18T13:03:20.335Z,2.86
2023-10-18T13:04:22.192Z,2.70
2023-10-18T13:05:24.078Z,2.30
2023-10-18T13:06:25.928Z,2.81
2023-10-18T13:07:27.799Z,2.57
2023-10-18T13:08:29.705Z,2.67
2023-10-18T13:09:31.736Z,2.85
2023-10-18T13:10:33.894Z,2.77
2023-10-18T13:11:35.811Z,2.21
2023-10-18T13:12:37.741Z,2.67
2023-10-18T13:13:39.506Z,3.33
2023-10-18T13:14:41.425Z,3.11
2023-10-18T13:15:43.224Z,2.53
2023-10-18T13:16:45.190Z,2.77
2023-10-18T13:17:47.145Z,2.41
2023-10-18T13:18:49.230Z,2.76
2023-10-18T13:19:51.255Z,2.47
2023-10-18T13:20:53.114Z,2.71
2023-10-18T13:21:54.880Z,2.43
2023-10-18T13:22:56.904Z,2.63
2023-10-18T13:23:59.159Z,2.47
2023-10-18T13:25:01.003Z,2.59
2023-10-18T13:26:02.935Z,2.55
2023-10-18T13:27:04.827Z,2.59
2023-10-18T13:28:06.721Z,2.40
2023-10-18T13:29:08.712Z,2.52
2023-10-18T13:30:10.863Z,2.52
2023-10-18T13:31:12.790Z,2.96
2023-10-18T13:32:14.761Z,2.99
2023-10-18T13:33:16.633Z,2.59
2023-10-18T13:34:18.530Z,2.62
2023-10-18T13:35:22.691Z,2.64
2023-10-18T13:36:24.167Z,2.55
2023-10-18T13:37:26.014Z,2.85
2023-10-18T13:38:27.893Z,2.58
2023-10-18T13:39:30.107Z,3.14
2023-10-18T13:40:32.211Z,2.68
2023-10-18T13:42:59.060Z,2.53
2023-10-18T13:44:00.954Z,3.05
2023-10-18T13:45:04.274Z,2.77
2023-10-18T13:46:06.481Z,2.64
2023-10-18T13:47:12.841Z,29.83
2023-10-18T13:48:11.902Z,6.41
2023-10-18T13:49:13.820Z,3.69
2023-10-18T13:50:17.300Z,3.95